sensor_id;sensor_type;location;lat;lon;timestamp;pressure;altitude;pressure_sealevel;temperature;humidity
59063;BME280;44851;45.648;9.004;2023-07-24T00:00:23;98785.97;;;24.83;57.94
59063;BME280;44851;45.648;9.004;2023-07-24T00:02:48;98789.44;;;24.83;58.20
59063;BME280;44851;45.648;9.004;2023-07-24T00:05:13;98795.22;;;24.80;59.36
59063;BME280;44851;45.648;9.004;2023-07-24T00:07:39;98795.22;;;24.80;59.34
59063;BME280;44851;45.648;9.004;2023-07-24T00:10:04;98793.66;;;24.68;59.10
59063;BME280;44851;45.648;9.004;2023-07-24T00:12:30;98798.19;;;24.67;58.70
59063;BME280;44851;45.648;9.004;2023-07-24T00:14:55;98803.50;;;24.67;59.36
59063;BME280;44851;45.648;9.004;2023-07-24T00:17:21;98804.63;;;24.71;58.84
59063;BME280;44851;45.648;9.004;2023-07-24T00:19:47;98802.59;;;24.61;59.30
59063;BME280;44851;45.648;9.004;2023-07-24T00:22:12;98806.28;;;24.49;59.22
59063;BME280;44851;45.648;9.004;2023-07-24T00:24:37;98793.75;;;24.61;59.56
59063;BME280;44851;45.648;9.004;2023-07-24T00:27:03;98783.94;;;24.61;59.57
59063;BME280;44851;45.648;9.004;2023-07-24T00:29:28;98780.94;;;24.58;59.74
59063;BME280;44851;45.648;9.004;2023-07-24T00:31:54;98772.53;;;24.66;58.91
59063;BME280;44851;45.648;9.004;2023-07-24T00:34:19;98766.31;;;24.60;58.97
59063;BME280;44851;45.648;9.004;2023-07-24T00:36:45;98764.69;;;24.59;59.01
59063;BME280;44851;45.648;9.004;2023-07-24T00:39:11;98767.22;;;24.54;59.13
59063;BME280;44851;45.648;9.004;2023-07-24T00:41:36;98761.09;;;24.54;58.62
59063;BME280;44851;45.648;9.004;2023-07-24T00:44:02;98759.63;;;24.46;59.08
59063;BME280;44851;45.648;9.004;2023-07-24T00:46:28;98757.50;;;24.48;59.09
59063;BME280;44851;45.648;9.004;2023-07-24T00:48:58;98761.56;;;24.51;59.61
59063;BME280;44851;45.648;9.004;2023-07-24T00:51:23;98771.22;;;24.40;59.54
59063;BME280;44851;45.648;9.004;2023-07-24T00:53:49;98776.06;;;24.43;59.25
59063;BME280;44851;45.648;9.004;2023-07-24T00:56:14;98774.69;;;24.40;59.52
59063;BME280;44851;45.648;9.004;2023-07-24T00:58:40;98771.31;;;24.33;60.17
59063;BME280;44851;45.648;9.004;2023-07-24T01:01:05;98769.47;;;24.34;59.87
59063;BME280;44851;45.648;9.004;2023-07-24T01:03:35;98772.13;;;24.34;59.59
59063;BME280;44851;45.648;9.004;2023-07-24T01:06:03;98760.66;;;24.33;60.37
59063;BME280;44851;45.648;9.004;2023-07-24T01:08:29;98769.84;;;24.26;60.67
59063;BME280;44851;45.648;9.004;2023-07-24T01:10:57;98768.34;;;24.30;60.98
59063;BME280;44851;45.648;9.004;2023-07-24T01:13:27;98761.16;;;24.30;60.33
59063;BME280;44851;45.648;9.004;2023-07-24T01:16:00;98763.84;;;24.19;60.68
59063;BME280;44851;45.648;9.004;2023-07-24T01:18:30;98770.53;;;24.21;60.84
59063;BME280;44851;45.648;9.004;2023-07-24T01:20:57;98772.53;;;24.14;61.02
59063;BME280;44851;45.648;9.004;2023-07-24T01:25:59;98765.56;;;24.13;60.14
59063;BME280;44851;45.648;9.004;2023-07-24T01:28:26;98770.53;;;24.21;60.83
59063;BME280;44851;45.648;9.004;2023-07-24T01:30:52;98766.72;;;24.17;60.88
59063;BME280;44851;45.648;9.004;2023-07-24T01:33:18;98769.97;;;24.19;60.66
59063;BME280;44851;45.648;9.004;2023-07-24T01:35:44;98767.09;;;24.09;61.15
59063;BME280;44851;45.648;9.004;2023-07-24T01:38:13;98764.06;;;24.17;60.86
59063;BME280;44851;45.648;9.004;2023-07-24T01:40:40;98757.22;;;24.21;60.38
59063;BME280;44851;45.648;9.004;2023-07-24T01:43:09;98752.34;;;24.18;60.67
59063;BME280;44851;45.648;9.004;2023-07-24T01:45:35;98752.34;;;24.18;60.83
59063;BME280;44851;45.648;9.004;2023-07-24T01:48:04;98742.53;;;24.19;61.10
59063;BME280;44851;45.648;9.004;2023-07-24T01:50:31;98736.97;;;23.97;60.96
59063;BME280;44851;45.648;9.004;2023-07-24T01:52:56;98728.75;;;24.10;61.18
59063;BME280;44851;45.648;9.004;2023-07-24T01:55:22;98719.25;;;24.14;61.02
59063;BME280;44851;45.648;9.004;2023-07-24T01:57:47;98714.84;;;24.08;60.97
59063;BME280;44851;45.648;9.004;2023-07-24T02:00:12;98722.75;;;24.03;61.01
59063;BME280;44851;45.648;9.004;2023-07-24T02:02:38;98717.63;;;24.13;61.42
59063;BME280;44851;45.648;9.004;2023-07-24T02:05:04;98714.78;;;24.03;61.81
59063;BME280;44851;45.648;9.004;2023-07-24T02:07:29;98710.47;;;24.02;61.07
59063;BME280;44851;45.648;9.004;2023-07-24T02:12:57;98698.78;;;24.03;61.18
59063;BME280;44851;45.648;9.004;2023-07-24T02:15:23;98697.50;;;23.70;61.46
59063;BME280;44851;45.648;9.004;2023-07-24T02:17:48;98696.59;;;23.76;62.28
59063;BME280;44851;45.648;9.004;2023-07-24T02:20:14;98700.59;;;23.91;61.82
59063;BME280;44851;45.648;9.004;2023-07-24T02:22:39;98691.03;;;24.01;61.56
59063;BME280;44851;45.648;9.004;2023-07-24T02:25:05;98699.94;;;23.95;61.33
59063;BME280;44851;45.648;9.004;2023-07-24T02:27:31;98700.31;;;23.99;61.77
59063;BME280;44851;45.648;9.004;2023-07-24T02:29:59;98704.00;;;23.98;61.81
59063;BME280;44851;45.648;9.004;2023-07-24T02:32:25;98699.59;;;23.92;62.42
59063;BME280;44851;45.648;9.004;2023-07-24T02:34:51;98689.41;;;23.88;62.10
59063;BME280;44851;45.648;9.004;2023-07-24T02:37:17;98686.50;;;23.78;62.29
59063;BME280;44851;45.648;9.004;2023-07-24T02:39:43;98683.16;;;23.83;62.45
59063;BME280;44851;45.648;9.004;2023-07-24T02:42:08;98686.88;;;23.82;62.54
59063;BME280;44851;45.648;9.004;2023-07-24T02:44:34;98678.75;;;23.88;62.34
59063;BME280;44851;45.648;9.004;2023-07-24T02:47:00;98676.44;;;23.80;61.82
59063;BME280;44851;45.648;9.004;2023-07-24T02:49:25;98674.00;;;23.79;61.68
59063;BME280;44851;45.648;9.004;2023-07-24T02:51:50;98676.31;;;23.75;62.04
59063;BME280;44851;45.648;9.004;2023-07-24T02:54:16;98674.59;;;23.69;62.08
59063;BME280;44851;45.648;9.004;2023-07-24T02:56:41;98690.91;;;23.84;62.54
59063;BME280;44851;45.648;9.004;2023-07-24T02:59:07;98695.97;;;23.86;61.85
59063;BME280;44851;45.648;9.004;2023-07-24T03:01:32;98694.03;;;23.81;62.05
59063;BME280;44851;45.648;9.004;2023-07-24T03:03:57;98705.03;;;23.73;62.93
59063;BME280;44851;45.648;9.004;2023-07-24T03:06:23;98711.63;;;23.71;62.06
59063;BME280;44851;45.648;9.004;2023-07-24T03:08:49;98708.84;;;23.77;62.33
59063;BME280;44851;45.648;9.004;2023-07-24T03:11:14;98684.78;;;23.72;62.64
59063;BME280;44851;45.648;9.004;2023-07-24T03:13:39;98682.25;;;23.77;62.15
59063;BME280;44851;45.648;9.004;2023-07-24T03:16:06;98675.63;;;23.80;62.22
59063;BME280;44851;45.648;9.004;2023-07-24T03:18:31;98656.31;;;23.84;61.85
59063;BME280;44851;45.648;9.004;2023-07-24T03:20:58;98650.31;;;23.77;62.46
59063;BME280;44851;45.648;9.004;2023-07-24T03:23:24;98660.94;;;23.77;62.25
59063;BME280;44851;45.648;9.004;2023-07-24T03:25:49;98656.06;;;23.74;62.79
59063;BME280;44851;45.648;9.004;2023-07-24T03:28:15;98663.81;;;23.76;63.03
59063;BME280;44851;45.648;9.004;2023-07-24T03:30:40;98669.50;;;23.79;62.54
59063;BME280;44851;45.648;9.004;2023-07-24T03:33:06;98666.50;;;23.87;62.80
59063;BME280;44851;45.648;9.004;2023-07-24T03:35:32;98654.19;;;23.86;62.38
59063;BME280;44851;45.648;9.004;2023-07-24T03:37:58;98659.88;;;23.90;63.26
59063;BME280;44851;45.648;9.004;2023-07-24T03:40:23;98661.31;;;23.93;63.44
59063;BME280;44851;45.648;9.004;2023-07-24T03:42:48;98642.84;;;23.91;62.53
59063;BME280;44851;45.648;9.004;2023-07-24T03:45:14;98665.19;;;23.90;62.92
59063;BME280;44851;45.648;9.004;2023-07-24T03:47:39;98659.19;;;23.83;63.45
59063;BME280;44851;45.648;9.004;2023-07-24T03:50:05;98673.22;;;23.78;63.22
59063;BME280;44851;45.648;9.004;2023-07-24T03:52:31;98674.38;;;23.82;63.23
59063;BME280;44851;45.648;9.004;2023-07-24T03:54:56;98684.66;;;23.79;63.40
59063;BME280;44851;45.648;9.004;2023-07-24T03:57:21;98673.44;;;23.77;63.39
59063;BME280;44851;45.648;9.004;2023-07-24T03:59:47;98661.16;;;23.76;63.61
59063;BME280;44851;45.648;9.004;2023-07-24T04:02:12;98676.91;;;23.77;63.05
59063;BME280;44851;45.648;9.004;2023-07-24T04:04:38;98683.03;;;23.78;63.40
59063;BME280;44851;45.648;9.004;2023-07-24T04:07:04;98677.38;;;23.74;63.03
59063;BME280;44851;45.648;9.004;2023-07-24T04:09:29;98677.84;;;23.71;63.40
59063;BME280;44851;45.648;9.004;2023-07-24T04:11:55;98694.28;;;23.68;63.54
59063;BME280;44851;45.648;9.004;2023-07-24T04:14:20;98697.97;;;23.67;64.32
59063;BME280;44851;45.648;9.004;2023-07-24T04:16:46;98705.47;;;23.70;63.94
59063;BME280;44851;45.648;9.004;2023-07-24T04:19:11;98715.56;;;23.68;65.20
59063;BME280;44851;45.648;9.004;2023-07-24T04:21:37;98736.16;;;23.73;64.91
59063;BME280;44851;45.648;9.004;2023-07-24T04:24:02;98732.69;;;23.72;64.65
59063;BME280;44851;45.648;9.004;2023-07-24T04:26:28;98735.34;;;23.72;65.02
59063;BME280;44851;45.648;9.004;2023-07-24T04:28:53;98751.88;;;23.74;64.59
59063;BME280;44851;45.648;9.004;2023-07-24T04:31:18;98784.75;;;23.80;64.26
59063;BME280;44851;45.648;9.004;2023-07-24T04:33:44;98820.16;;;23.80;63.60
59063;BME280;44851;45.648;9.004;2023-07-24T04:36:09;98823.16;;;23.72;65.06
59063;BME280;44851;45.648;9.004;2023-07-24T04:38:35;98784.31;;;23.71;63.83
59063;BME280;44851;45.648;9.004;2023-07-24T04:41:01;98702.50;;;23.67;64.01
59063;BME280;44851;45.648;9.004;2023-07-24T04:43:28;98671.47;;;23.37;64.30
59063;BME280;44851;45.648;9.004;2023-07-24T04:45:53;98636.44;;;23.28;66.79
59063;BME280;44851;45.648;9.004;2023-07-24T04:48:19;98649.09;;;23.03;68.74
59063;BME280;44851;45.648;9.004;2023-07-24T04:50:44;98675.00;;;23.19;70.04
59063;BME280;44851;45.648;9.004;2023-07-24T04:53:10;98662.69;;;23.36;69.24
59063;BME280;44851;45.648;9.004;2023-07-24T04:55:35;98671.81;;;23.41;70.25
59063;BME280;44851;45.648;9.004;2023-07-24T04:58:01;98650.56;;;23.41;70.19
59063;BME280;44851;45.648;9.004;2023-07-24T05:00:26;98582.44;;;23.28;70.27
59063;BME280;44851;45.648;9.004;2023-07-24T05:02:52;98523.13;;;23.27;69.79
59063;BME280;44851;45.648;9.004;2023-07-24T05:05:17;98503.81;;;23.08;70.46
59063;BME280;44851;45.648;9.004;2023-07-24T05:07:42;98516.97;;;23.15;69.90
59063;BME280;44851;45.648;9.004;2023-07-24T05:10:08;98529.59;;;23.08;69.10
59063;BME280;44851;45.648;9.004;2023-07-24T05:12:33;98557.13;;;23.25;69.81
59063;BME280;44851;45.648;9.004;2023-07-24T05:14:59;98589.25;;;23.24;69.35
59063;BME280;44851;45.648;9.004;2023-07-24T05:17:24;98620.00;;;23.31;69.72
59063;BME280;44851;45.648;9.004;2023-07-24T05:19:50;98620.69;;;23.39;70.75
59063;BME280;44851;45.648;9.004;2023-07-24T05:22:15;98617.25;;;23.50;69.83
59063;BME280;44851;45.648;9.004;2023-07-24T05:24:40;98589.91;;;23.54;70.99
59063;BME280;44851;45.648;9.004;2023-07-24T05:27:06;98551.97;;;23.59;69.24
59063;BME280;44851;45.648;9.004;2023-07-24T05:29:32;98525.03;;;23.67;68.83
59063;BME280;44851;45.648;9.004;2023-07-24T05:31:57;98539.78;;;23.75;68.11
59063;BME280;44851;45.648;9.004;2023-07-24T05:34:24;98562.97;;;23.62;67.52
59063;BME280;44851;45.648;9.004;2023-07-24T05:36:49;98562.38;;;23.72;67.62
59063;BME280;44851;45.648;9.004;2023-07-24T05:39:15;98574.28;;;23.70;69.07
59063;BME280;44851;45.648;9.004;2023-07-24T05:41:40;98587.16;;;23.61;66.67
59063;BME280;44851;45.648;9.004;2023-07-24T05:44:06;98591.75;;;23.77;69.21
59063;BME280;44851;45.648;9.004;2023-07-24T05:46:31;98605.28;;;23.64;67.67
59063;BME280;44851;45.648;9.004;2023-07-24T05:48:56;98600.28;;;23.79;67.66
59063;BME280;44851;45.648;9.004;2023-07-24T05:51:22;98597.53;;;23.74;65.77
59063;BME280;44851;45.648;9.004;2023-07-24T05:53:48;98596.38;;;23.70;65.02
59063;BME280;44851;45.648;9.004;2023-07-24T05:56:13;98616.41;;;23.73;65.09
59063;BME280;44851;45.648;9.004;2023-07-24T05:58:39;98642.66;;;23.93;63.85
59063;BME280;44851;45.648;9.004;2023-07-24T06:01:04;98649.53;;;24.17;63.81
59063;BME280;44851;45.648;9.004;2023-07-24T06:03:30;98677.63;;;24.36;65.61
59063;BME280;44851;45.648;9.004;2023-07-24T06:05:55;98706.88;;;24.60;65.52
59063;BME280;44851;45.648;9.004;2023-07-24T06:08:22;98749.84;;;24.63;64.45
59063;BME280;44851;45.648;9.004;2023-07-24T06:10:48;98779.16;;;24.63;62.70
59063;BME280;44851;45.648;9.004;2023-07-24T06:13:18;98762.69;;;24.55;63.54
59063;BME280;44851;45.648;9.004;2023-07-24T06:15:43;98747.09;;;24.47;65.12
59063;BME280;44851;45.648;9.004;2023-07-24T06:18:09;98713.66;;;24.27;64.85
59063;BME280;44851;45.648;9.004;2023-07-24T06:20:34;98667.28;;;24.11;63.25
59063;BME280;44851;45.648;9.004;2023-07-24T06:23:00;98668.47;;;24.04;64.58
59063;BME280;44851;45.648;9.004;2023-07-24T06:25:25;98639.88;;;23.87;65.76
59063;BME280;44851;45.648;9.004;2023-07-24T06:27:51;98630.28;;;23.98;66.16
59063;BME280;44851;45.648;9.004;2023-07-24T06:30:16;98632.91;;;24.10;65.84
59063;BME280;44851;45.648;9.004;2023-07-24T06:32:42;98639.50;;;24.07;66.25
59063;BME280;44851;45.648;9.004;2023-07-24T06:35:08;98641.47;;;24.40;67.50
59063;BME280;44851;45.648;9.004;2023-07-24T06:37:34;98621.34;;;24.33;63.25
59063;BME280;44851;45.648;9.004;2023-07-24T06:39:59;98578.22;;;24.19;65.21
59063;BME280;44851;45.648;9.004;2023-07-24T06:42:25;98547.25;;;24.30;63.72
59063;BME280;44851;45.648;9.004;2023-07-24T06:44:50;98565.34;;;24.45;64.88
59063;BME280;44851;45.648;9.004;2023-07-24T06:47:15;98610.06;;;24.43;64.88
59063;BME280;44851;45.648;9.004;2023-07-24T06:49:41;98619.63;;;24.84;64.84
59063;BME280;44851;45.648;9.004;2023-07-24T06:52:06;98621.16;;;24.80;64.02
59063;BME280;44851;45.648;9.004;2023-07-24T06:54:32;98640.06;;;24.95;63.40
59063;BME280;44851;45.648;9.004;2023-07-24T06:56:57;98673.50;;;25.31;62.32
59063;BME280;44851;45.648;9.004;2023-07-24T06:59:23;98705.88;;;25.40;62.82
59063;BME280;44851;45.648;9.004;2023-07-24T07:01:48;98691.53;;;24.96;60.67
59063;BME280;44851;45.648;9.004;2023-07-24T07:04:14;98638.53;;;25.16;62.97
59063;BME280;44851;45.648;9.004;2023-07-24T07:06:39;98605.03;;;25.20;63.52
59063;BME280;44851;45.648;9.004;2023-07-24T07:09:04;98615.81;;;25.13;62.57
59063;BME280;44851;45.648;9.004;2023-07-24T07:11:30;98653.66;;;24.94;60.93
59063;BME280;44851;45.648;9.004;2023-07-24T07:13:56;98716.31;;;24.79;62.28
59063;BME280;44851;45.648;9.004;2023-07-24T07:16:21;98815.19;;;24.66;63.26
59063;BME280;44851;45.648;9.004;2023-07-24T07:18:46;98893.75;;;24.75;63.11
59063;BME280;44851;45.648;9.004;2023-07-24T07:21:12;98931.22;;;24.57;62.87
59063;BME280;44851;45.648;9.004;2023-07-24T07:23:37;98865.72;;;24.61;62.92
59063;BME280;44851;45.648;9.004;2023-07-24T07:26:03;98671.78;;;24.11;66.77
59063;BME280;44851;45.648;9.004;2023-07-24T07:28:28;98606.34;;;23.63;71.41
59063;BME280;44851;45.648;9.004;2023-07-24T07:30:54;98672.31;;;23.61;74.31
59063;BME280;44851;45.648;9.004;2023-07-24T07:33:19;98703.41;;;23.84;74.72
59063;BME280;44851;45.648;9.004;2023-07-24T07:35:47;98702.84;;;23.94;75.38
59063;BME280;44851;45.648;9.004;2023-07-24T07:38:12;98718.34;;;23.97;75.15
59063;BME280;44851;45.648;9.004;2023-07-24T07:40:38;98742.53;;;23.95;74.39
59063;BME280;44851;45.648;9.004;2023-07-24T07:43:04;98782.03;;;23.98;76.10
59063;BME280;44851;45.648;9.004;2023-07-24T07:45:30;98842.50;;;23.79;75.63
59063;BME280;44851;45.648;9.004;2023-07-24T07:47:55;98808.38;;;23.76;76.35
59063;BME280;44851;45.648;9.004;2023-07-24T07:50:21;98629.63;;;23.56;78.49
59063;BME280;44851;45.648;9.004;2023-07-24T07:52:50;98514.06;;;23.52;78.02
59063;BME280;44851;45.648;9.004;2023-07-24T07:55:16;98512.38;;;23.74;78.57
59063;BME280;44851;45.648;9.004;2023-07-24T07:57:41;98569.16;;;23.40;78.27
59063;BME280;44851;45.648;9.004;2023-07-24T08:00:07;98703.28;;;23.44;79.17
59063;BME280;44851;45.648;9.004;2023-07-24T08:02:33;98810.28;;;23.46;77.81
59063;BME280;44851;45.648;9.004;2023-07-24T08:04:59;98894.09;;;23.36;78.49
59063;BME280;44851;45.648;9.004;2023-07-24T08:07:25;98969.63;;;23.10;78.57
59063;BME280;44851;45.648;9.004;2023-07-24T08:09:50;98998.22;;;22.97;80.22
59063;BME280;44851;45.648;9.004;2023-07-24T08:12:16;98961.13;;;22.65;83.05
59063;BME280;44851;45.648;9.004;2023-07-24T08:14:41;98838.75;;;21.28;80.91
59063;BME280;44851;45.648;9.004;2023-07-24T08:17:07;98586.81;;;20.60;77.30
59063;BME280;44851;45.648;9.004;2023-07-24T08:19:32;98577.19;;;20.41;80.86
59063;BME280;44851;45.648;9.004;2023-07-24T08:21:57;98606.97;;;20.93;83.63
59063;BME280;44851;45.648;9.004;2023-07-24T08:24:23;98605.94;;;20.31;78.52
59063;BME280;44851;45.648;9.004;2023-07-24T08:26:48;98626.38;;;20.55;78.15
59063;BME280;44851;45.648;9.004;2023-07-24T08:29:14;98648.72;;;20.97;78.64
59063;BME280;44851;45.648;9.004;2023-07-24T08:31:39;98626.81;;;21.15;79.14
59063;BME280;44851;45.648;9.004;2023-07-24T08:34:05;98591.19;;;21.05;77.79
59063;BME280;44851;45.648;9.004;2023-07-24T08:36:30;98576.69;;;21.07;75.89
59063;BME280;44851;45.648;9.004;2023-07-24T08:38:56;98604.59;;;21.35;78.64
59063;BME280;44851;45.648;9.004;2023-07-24T08:41:21;98597.84;;;21.57;79.62
59063;BME280;44851;45.648;9.004;2023-07-24T08:43:46;98618.94;;;21.89;79.61
59063;BME280;44851;45.648;9.004;2023-07-24T08:46:12;98641.19;;;22.24;77.43
59063;BME280;44851;45.648;9.004;2023-07-24T08:48:39;98658.72;;;22.44;78.69
59063;BME280;44851;45.648;9.004;2023-07-24T08:51:10;98652.81;;;22.42;78.19
59063;BME280;44851;45.648;9.004;2023-07-24T08:53:37;98645.38;;;22.32;78.60
59063;BME280;44851;45.648;9.004;2023-07-24T08:56:08;98654.16;;;22.32;77.19
59063;BME280;44851;45.648;9.004;2023-07-24T08:58:34;98677.59;;;22.54;78.91
59063;BME280;44851;45.648;9.004;2023-07-24T09:01:07;98658.97;;;22.72;78.84
59063;BME280;44851;45.648;9.004;2023-07-24T09:03:34;98686.50;;;22.90;80.21
59063;BME280;44851;45.648;9.004;2023-07-24T09:06:00;98686.75;;;23.00;80.73
59063;BME280;44851;45.648;9.004;2023-07-24T09:08:37;98686.75;;;23.00;78.99
59063;BME280;44851;45.648;9.004;2023-07-24T09:11:04;98694.66;;;23.18;80.59
59063;BME280;44851;45.648;9.004;2023-07-24T09:13:30;98692.00;;;23.18;78.91
59063;BME280;44851;45.648;9.004;2023-07-24T09:15:56;98687.09;;;23.33;80.07
59063;BME280;44851;45.648;9.004;2023-07-24T09:18:22;98719.00;;;23.33;78.50
59063;BME280;44851;45.648;9.004;2023-07-24T09:20:48;98714.03;;;23.37;78.81
59063;BME280;44851;45.648;9.004;2023-07-24T09:23:14;98718.22;;;23.45;80.19
59063;BME280;44851;45.648;9.004;2023-07-24T09:25:42;98707.91;;;23.48;79.81
59063;BME280;44851;45.648;9.004;2023-07-24T09:28:15;98683.16;;;23.48;79.61
59063;BME280;44851;45.648;9.004;2023-07-24T09:30:42;98680.50;;;23.36;79.67
59063;BME280;44851;45.648;9.004;2023-07-24T09:33:16;98677.72;;;23.43;79.84
59063;BME280;44851;45.648;9.004;2023-07-24T09:35:42;98667.59;;;23.21;79.35
59063;BME280;44851;45.648;9.004;2023-07-24T09:38:09;98662.72;;;22.95;79.62
59063;BME280;44851;45.648;9.004;2023-07-24T09:40:42;98653.16;;;22.45;80.53
59063;BME280;44851;45.648;9.004;2023-07-24T09:43:21;98648.06;;;22.62;81.16
59063;BME280;44851;45.648;9.004;2023-07-24T09:45:48;98633.53;;;22.46;81.04
59063;BME280;44851;45.648;9.004;2023-07-24T09:48:15;98636.66;;;22.73;78.27
59063;BME280;44851;45.648;9.004;2023-07-24T09:50:42;98673.72;;;22.68;80.61
59063;BME280;44851;45.648;9.004;2023-07-24T09:56:11;98687.13;;;22.73;80.21
59063;BME280;44851;45.648;9.004;2023-07-24T09:58:40;98654.69;;;22.71;79.89
59063;BME280;44851;45.648;9.004;2023-07-24T10:01:08;98644.38;;;22.63;79.58
59063;BME280;44851;45.648;9.004;2023-07-24T10:03:37;98625.22;;;22.73;80.74
59063;BME280;44851;45.648;9.004;2023-07-24T10:06:04;98600.50;;;22.72;78.70
59063;BME280;44851;45.648;9.004;2023-07-24T10:08:29;98571.03;;;22.62;80.64
59063;BME280;44851;45.648;9.004;2023-07-24T10:10:55;98569.31;;;22.79;78.70
59063;BME280;44851;45.648;9.004;2023-07-24T10:13:21;98570.41;;;23.02;79.96
59063;BME280;44851;45.648;9.004;2023-07-24T10:15:48;98580.47;;;23.23;80.60
59063;BME280;44851;45.648;9.004;2023-07-24T10:18:15;98559.19;;;23.23;77.75
59063;BME280;44851;45.648;9.004;2023-07-24T10:20:41;98564.59;;;23.17;77.87
59063;BME280;44851;45.648;9.004;2023-07-24T10:23:11;98552.97;;;23.29;77.91
59063;BME280;44851;45.648;9.004;2023-07-24T10:25:40;98549.00;;;22.97;79.52
59063;BME280;44851;45.648;9.004;2023-07-24T10:28:08;98537.69;;;23.36;79.80
59063;BME280;44851;45.648;9.004;2023-07-24T10:30:39;98536.66;;;23.26;78.64
59063;BME280;44851;45.648;9.004;2023-07-24T10:35:44;98544.38;;;23.27;78.37
59063;BME280;44851;45.648;9.004;2023-07-24T10:38:12;98535.03;;;23.36;78.91
59063;BME280;44851;45.648;9.004;2023-07-24T10:40:39;98536.97;;;23.06;77.61
59063;BME280;44851;45.648;9.004;2023-07-24T10:43:10;98523.13;;;23.27;79.62
59063;BME280;44851;45.648;9.004;2023-07-24T10:45:39;98523.78;;;23.46;79.11
59063;BME280;44851;45.648;9.004;2023-07-24T10:48:05;98517.63;;;23.57;77.99
59063;BME280;44851;45.648;9.004;2023-07-24T10:50:41;98533.41;;;23.24;74.20
59063;BME280;44851;45.648;9.004;2023-07-24T10:53:12;98520.34;;;23.46;77.37
59063;BME280;44851;45.648;9.004;2023-07-24T10:55:38;98486.66;;;23.51;75.47
59063;BME280;44851;45.648;9.004;2023-07-24T10:58:03;98483.09;;;23.46;75.74
59063;BME280;44851;45.648;9.004;2023-07-24T11:00:29;98464.06;;;23.14;73.95
59063;BME280;44851;45.648;9.004;2023-07-24T11:02:54;98468.19;;;23.21;76.56
59063;BME280;44851;45.648;9.004;2023-07-24T11:05:23;98501.03;;;23.27;76.64
59063;BME280;44851;45.648;9.004;2023-07-24T11:07:49;98502.53;;;23.34;76.29
59063;BME280;44851;45.648;9.004;2023-07-24T11:10:16;98490.50;;;23.20;75.29
59063;BME280;44851;45.648;9.004;2023-07-24T11:12:41;98484.28;;;23.15;74.93
59063;BME280;44851;45.648;9.004;2023-07-24T11:15:07;98459.06;;;23.17;74.42
59063;BME280;44851;45.648;9.004;2023-07-24T11:17:36;98441.66;;;22.86;72.71
59063;BME280;44851;45.648;9.004;2023-07-24T11:20:10;98460.38;;;23.03;75.79
59063;BME280;44851;45.648;9.004;2023-07-24T11:22:38;98482.06;;;23.11;75.57
59063;BME280;44851;45.648;9.004;2023-07-24T11:25:04;98415.03;;;23.09;74.88
59063;BME280;44851;45.648;9.004;2023-07-24T11:27:32;98353.53;;;22.77;74.55
59063;BME280;44851;45.648;9.004;2023-07-24T11:29:57;98328.84;;;22.65;76.13
59063;BME280;44851;45.648;9.004;2023-07-24T11:32:22;98322.81;;;22.58;77.69
59063;BME280;44851;45.648;9.004;2023-07-24T11:34:49;98334.25;;;22.35;78.94
59063;BME280;44851;45.648;9.004;2023-07-24T11:37:15;98415.75;;;22.11;78.32
59063;BME280;44851;45.648;9.004;2023-07-24T11:39:41;98534.63;;;21.91;80.85
59063;BME280;44851;45.648;9.004;2023-07-24T11:42:07;98624.66;;;21.67;85.04
59063;BME280;44851;45.648;9.004;2023-07-24T11:44:32;98605.94;;;21.62;85.04
59063;BME280;44851;45.648;9.004;2023-07-24T11:47:05;98580.81;;;21.46;83.39
59063;BME280;44851;45.648;9.004;2023-07-24T11:49:32;98579.69;;;21.36;82.30
59063;BME280;44851;45.648;9.004;2023-07-24T11:52:05;98536.72;;;21.09;81.60
59063;BME280;44851;45.648;9.004;2023-07-24T11:54:33;98622.91;;;21.18;83.30
59063;BME280;44851;45.648;9.004;2023-07-24T11:56:59;98704.59;;;21.27;84.28
59063;BME280;44851;45.648;9.004;2023-07-24T11:59:24;98725.25;;;21.44;84.04
59063;BME280;44851;45.648;9.004;2023-07-24T12:01:50;98718.34;;;21.43;80.52
59063;BME280;44851;45.648;9.004;2023-07-24T12:04:16;98693.16;;;21.52;81.20
59063;BME280;44851;45.648;9.004;2023-07-24T12:06:42;98666.38;;;21.60;80.24
59063;BME280;44851;45.648;9.004;2023-07-24T12:09:08;98641.34;;;21.74;81.17
59063;BME280;44851;45.648;9.004;2023-07-24T12:11:44;98605.44;;;21.53;78.04
59063;BME280;44851;45.648;9.004;2023-07-24T12:14:11;98588.34;;;21.49;77.41
59063;BME280;44851;45.648;9.004;2023-07-24T12:16:36;98646.59;;;21.38;79.86
59063;BME280;44851;45.648;9.004;2023-07-24T12:19:02;98634.31;;;21.62;82.15
59063;BME280;44851;45.648;9.004;2023-07-24T12:21:28;98609.41;;;21.44;77.91
59063;BME280;44851;45.648;9.004;2023-07-24T12:23:53;98567.63;;;21.21;78.54
59063;BME280;44851;45.648;9.004;2023-07-24T12:26:18;98558.19;;;21.25;81.25
59063;BME280;44851;45.648;9.004;2023-07-24T12:28:44;98615.81;;;21.37;80.98
59063;BME280;44851;45.648;9.004;2023-07-24T12:31:09;98635.59;;;21.34;79.80
59063;BME280;44851;45.648;9.004;2023-07-24T12:33:34;98591.19;;;21.29;80.48
59063;BME280;44851;45.648;9.004;2023-07-24T12:36:00;98549.53;;;21.37;79.88
59063;BME280;44851;45.648;9.004;2023-07-24T12:38:26;98562.25;;;21.28;81.24
59063;BME280;44851;45.648;9.004;2023-07-24T12:40:52;98550.09;;;21.57;82.20
59063;BME280;44851;45.648;9.004;2023-07-24T12:43:17;98505.63;;;21.22;79.89
59063;BME280;44851;45.648;9.004;2023-07-24T12:45:43;98512.38;;;21.18;81.01
59063;BME280;44851;45.648;9.004;2023-07-24T12:48:08;98459.09;;;21.26;81.56
59063;BME280;44851;45.648;9.004;2023-07-24T12:50:33;98478.47;;;21.27;80.98
59063;BME280;44851;45.648;9.004;2023-07-24T12:52:59;98487.28;;;21.39;80.90
59063;BME280;44851;45.648;9.004;2023-07-24T12:55:24;98474.47;;;21.36;81.92
59063;BME280;44851;45.648;9.004;2023-07-24T12:57:49;98471.44;;;21.14;79.82
59063;BME280;44851;45.648;9.004;2023-07-24T13:00:15;98467.13;;;21.38;81.79
59063;BME280;44851;45.648;9.004;2023-07-24T13:02:40;98494.56;;;21.44;80.80
59063;BME280;44851;45.648;9.004;2023-07-24T13:05:06;98494.81;;;21.42;80.75